sensor_id;sensor_type;location;lat;lon;timestamp;pressure;altitude;pressure_sealevel;temperature;humidity
7433;BME280;32233;49.500;7.764;2022-10-16T00:00:52;98264.22;;;13.41;100.00
7433;BME280;32233;49.500;7.764;2022-10-16T00:03:19;98261.63;;;13.53;100.00
7433;BME280;32233;49.500;7.764;2022-10-16T00:05:45;98273.16;;;13.28;100.00
7433;BME280;32233;49.500;7.764;2022-10-16T00:08:12;98282.22;;;13.39;100.00
7433;BME280;32233;49.500;7.764;2022-10-16T00:10:39;98275.34;;;13.50;100.00
7433;BME280;32233;49.500;7.764;2022-10-16T00:13:07;98277.50;;;13.41;100.00
7433;BME280;32233;49.500;7.764;2022-10-16T00:15:36;98282.13;;;13.46;100.00
7433;BME280;32233;49.500;7.764;2022-10-16T00:18:04;98278.66;;;13.63;100.00
7433;BME280;32233;49.500;7.764;2022-10-16T00:20:33;98271.56;;;13.57;100.00
7433;BME280;32233;49.500;7.764;2022-10-16T00:23:00;98274.16;;;13.64;100.00
7433;BME280;32233;49.500;7.764;2022-10-16T00:25:27;98264.78;;;13.61;100.00
7433;BME280;32233;49.500;7.764;2022-10-16T00:27:53;98270.47;;;13.47;100.00
7433;BME280;32233;49.500;7.764;2022-10-16T00:30:20;98264.72;;;13.50;100.00
7433;BME280;32233;49.500;7.764;2022-10-16T00:32:47;98257.78;;;13.49;100.00
7433;BME280;32233;49.500;7.764;2022-10-16T00:35:13;98255.44;;;13.41;100.00
7433;BME280;32233;49.500;7.764;2022-10-16T00:37:40;98253.81;;;13.21;100.00
7433;BME280;32233;49.500;7.764;2022-10-16T00:40:06;98264.59;;;13.45;100.00
7433;BME280;32233;49.500;7.764;2022-10-16T00:42:33;98260.56;;;13.54;100.00
7433;BME280;32233;49.500;7.764;2022-10-16T00:45:00;98260.03;;;13.33;100.00
7433;BME280;32233;49.500;7.764;2022-10-16T00:47:29;98258.97;;;13.34;100.00
7433;BME280;32233;49.500;7.764;2022-10-16T00:50:16;98255.00;;;13.44;100.00
7433;BME280;32233;49.500;7.764;2022-10-16T00:52:48;98257.88;;;13.42;100.00
7433;BME280;32233;49.500;7.764;2022-10-16T00:55:15;98269.53;;;13.41;100.00
7433;BME280;32233;49.500;7.764;2022-10-16T00:57:43;98268.41;;;13.49;100.00
7433;BME280;32233;49.500;7.764;2022-10-16T01:00:12;98265.34;;;13.33;100.00
7433;BME280;32233;49.500;7.764;2022-10-16T01:02:39;98262.78;;;13.57;100.00
7433;BME280;32233;49.500;7.764;2022-10-16T01:05:06;98265.63;;;13.44;100.00
7433;BME280;32233;49.500;7.764;2022-10-16T01:12:52;98278.53;;;13.40;100.00
7433;BME280;32233;49.500;7.764;2022-10-16T01:18:09;98294.84;;;13.44;100.00
7433;BME280;32233;49.500;7.764;2022-10-16T01:21:04;98297.03;;;13.47;100.00
7433;BME280;32233;49.500;7.764;2022-10-16T01:29:08;98301.59;;;13.58;100.00
7433;BME280;32233;49.500;7.764;2022-10-16T01:31:39;98289.84;;;13.66;100.00
7433;BME280;32233;49.500;7.764;2022-10-16T01:34:15;98294.59;;;13.45;100.00
7433;BME280;32233;49.500;7.764;2022-10-16T01:37:00;98290.84;;;13.34;100.00
7433;BME280;32233;49.500;7.764;2022-10-16T01:39:31;98285.22;;;13.61;100.00
7433;BME280;32233;49.500;7.764;2022-10-16T01:42:09;98296.38;;;13.51;100.00
7433;BME280;32233;49.500;7.764;2022-10-16T01:44:38;98290.03;;;13.34;100.00
7433;BME280;32233;49.500;7.764;2022-10-16T01:47:07;98293.06;;;13.37;100.00
7433;BME280;32233;49.500;7.764;2022-10-16T01:49:37;98297.78;;;13.35;100.00
7433;BME280;32233;49.500;7.764;2022-10-16T01:52:09;98294.16;;;13.48;100.00
7433;BME280;32233;49.500;7.764;2022-10-16T01:54:40;98287.88;;;13.61;100.00
7433;BME280;32233;49.500;7.764;2022-10-16T01:57:08;98281.00;;;13.53;100.00
7433;BME280;32233;49.500;7.764;2022-10-16T01:59:42;98273.66;;;13.37;100.00
7433;BME280;32233;49.500;7.764;2022-10-16T02:02:12;98296.16;;;13.34;100.00
7433;BME280;32233;49.500;7.764;2022-10-16T02:04:44;98293.56;;;13.46;100.00
7433;BME280;32233;49.500;7.764;2022-10-16T02:07:12;98291.38;;;13.43;100.00
7433;BME280;32233;49.500;7.764;2022-10-16T02:09:38;98294.03;;;13.43;100.00
7433;BME280;32233;49.500;7.764;2022-10-16T02:12:13;98302.88;;;13.37;100.00
7433;BME280;32233;49.500;7.764;2022-10-16T02:14:41;98297.13;;;13.40;100.00
7433;BME280;32233;49.500;7.764;2022-10-16T02:17:14;98299.53;;;13.42;100.00
7433;BME280;32233;49.500;7.764;2022-10-16T02:19:41;98287.94;;;13.54;100.00
7433;BME280;32233;49.500;7.764;2022-10-16T02:22:09;98290.63;;;13.36;100.00
7433;BME280;32233;49.500;7.764;2022-10-16T02:25:22;98301.94;;;13.61;100.00
7433;BME280;32233;49.500;7.764;2022-10-16T02:27:52;98311.72;;;13.49;100.00
7433;BME280;32233;49.500;7.764;2022-10-16T02:30:32;98307.94;;;13.57;100.00
7433;BME280;32233;49.500;7.764;2022-10-16T02:33:02;98312.56;;;13.61;100.00
7433;BME280;32233;49.500;7.764;2022-10-16T02:35:31;98297.09;;;13.58;100.00
7433;BME280;32233;49.500;7.764;2022-10-16T02:37:58;98298.09;;;13.76;100.00
7433;BME280;32233;49.500;7.764;2022-10-16T02:40:26;98303.06;;;13.72;100.00
7433;BME280;32233;49.500;7.764;2022-10-16T02:42:54;98296.56;;;13.68;100.00
7433;BME280;32233;49.500;7.764;2022-10-16T02:45:22;98298.66;;;13.48;100.00
7433;BME280;32233;49.500;7.764;2022-10-16T02:47:49;98303.25;;;13.41;100.00
7433;BME280;32233;49.500;7.764;2022-10-16T02:50:16;98303.31;;;13.52;100.00
7433;BME280;32233;49.500;7.764;2022-10-16T02:52:42;98296.00;;;13.48;100.00
7433;BME280;32233;49.500;7.764;2022-10-16T02:55:09;98308.19;;;13.37;100.00
7433;BME280;32233;49.500;7.764;2022-10-16T02:57:35;98301.31;;;13.48;100.00
7433;BME280;32233;49.500;7.764;2022-10-16T03:00:04;98303.19;;;13.22;100.00
7433;BME280;32233;49.500;7.764;2022-10-16T03:02:31;98298.91;;;13.28;100.00
7433;BME280;32233;49.500;7.764;2022-10-16T03:04:57;98308.63;;;13.34;100.00
7433;BME280;32233;49.500;7.764;2022-10-16T03:07:24;98314.03;;;13.27;100.00
7433;BME280;32233;49.500;7.764;2022-10-16T03:09:51;98317.25;;;13.29;100.00
7433;BME280;32233;49.500;7.764;2022-10-16T03:12:17;98321.22;;;13.38;100.00
7433;BME280;32233;49.500;7.764;2022-10-16T03:14:44;98317.38;;;13.53;100.00
7433;BME280;32233;49.500;7.764;2022-10-16T03:17:10;98315.59;;;13.47;100.00
7433;BME280;32233;49.500;7.764;2022-10-16T03:19:37;98319.91;;;13.48;100.00
7433;BME280;32233;49.500;7.764;2022-10-16T03:22:03;98321.38;;;13.44;100.00
7433;BME280;32233;49.500;7.764;2022-10-16T03:24:30;98326.09;;;13.42;100.00
7433;BME280;32233;49.500;7.764;2022-10-16T03:26:57;98323.88;;;13.38;100.00
7433;BME280;32233;49.500;7.764;2022-10-16T03:29:23;98326.91;;;13.60;100.00
7433;BME280;32233;49.500;7.764;2022-10-16T03:31:51;98334.00;;;13.48;100.00
7433;BME280;32233;49.500;7.764;2022-10-16T03:34:18;98331.09;;;13.50;100.00
7433;BME280;32233;49.500;7.764;2022-10-16T03:36:44;98324.59;;;13.64;100.00
7433;BME280;32233;49.500;7.764;2022-10-16T03:39:11;98320.09;;;13.46;100.00
7433;BME280;32233;49.500;7.764;2022-10-16T03:41:37;98329.19;;;13.57;100.00
7433;BME280;32233;49.500;7.764;2022-10-16T03:44:04;98323.81;;;13.45;100.00
7433;BME280;32233;49.500;7.764;2022-10-16T03:46:30;98312.34;;;13.63;100.00
7433;BME280;32233;49.500;7.764;2022-10-16T03:48:57;98297.09;;;13.58;100.00
7433;BME280;32233;49.500;7.764;2022-10-16T03:51:23;98306.31;;;13.56;100.00
7433;BME280;32233;49.500;7.764;2022-10-16T03:53:50;98307.94;;;13.57;100.00
7433;BME280;32233;49.500;7.764;2022-10-16T03:56:16;98314.06;;;13.57;100.00
7433;BME280;32233;49.500;7.764;2022-10-16T03:58:43;98319.56;;;13.74;100.00
7433;BME280;32233;49.500;7.764;2022-10-16T04:01:09;98321.44;;;13.55;100.00
7433;BME280;32233;49.500;7.764;2022-10-16T04:03:36;98326.69;;;13.44;100.00
7433;BME280;32233;49.500;7.764;2022-10-16T04:06:03;98333.44;;;13.58;100.00
7433;BME280;32233;49.500;7.764;2022-10-16T04:08:29;98336.66;;;13.48;100.00
7433;BME280;32233;49.500;7.764;2022-10-16T04:10:56;98338.69;;;13.46;100.00
7433;BME280;32233;49.500;7.764;2022-10-16T04:13:22;98343.19;;;13.46;100.00
7433;BME280;32233;49.500;7.764;2022-10-16T04:15:49;98340.47;;;13.34;100.00
7433;BME280;32233;49.500;7.764;2022-10-16T04:18:15;98350.34;;;13.45;100.00
7433;BME280;32233;49.500;7.764;2022-10-16T04:20:41;98338.75;;;13.58;100.00
7433;BME280;32233;49.500;7.764;2022-10-16T04:23:08;98330.72;;;13.46;100.00
7433;BME280;32233;49.500;7.764;2022-10-16T04:25:34;98331.19;;;13.43;100.00
7433;BME280;32233;49.500;7.764;2022-10-16T04:28:01;98319.13;;;13.59;100.00
7433;BME280;32233;49.500;7.764;2022-10-16T04:30:28;98317.47;;;13.46;100.00
7433;BME280;32233;49.500;7.764;2022-10-16T04:32:54;98322.56;;;13.48;100.00
7433;BME280;32233;49.500;7.764;2022-10-16T04:35:21;98316.03;;;13.62;100.00
7433;BME280;32233;49.500;7.764;2022-10-16T04:37:48;98314.28;;;13.56;100.00
7433;BME280;32233;49.500;7.764;2022-10-16T04:40:15;98323.00;;;13.45;100.00
7433;BME280;32233;49.500;7.764;2022-10-16T04:42:41;98314.44;;;13.43;100.00
7433;BME280;32233;49.500;7.764;2022-10-16T04:45:08;98325.66;;;13.26;100.00
7433;BME280;32233;49.500;7.764;2022-10-16T04:47:40;98325.00;;;13.31;100.00
7433;BME280;32233;49.500;7.764;2022-10-16T04:50:07;98317.50;;;13.21;100.00
7433;BME280;32233;49.500;7.764;2022-10-16T04:52:34;98326.50;;;13.20;100.00
7433;BME280;32233;49.500;7.764;2022-10-16T04:55:05;98334.47;;;13.20;100.00
7433;BME280;32233;49.500;7.764;2022-10-16T04:57:32;98338.47;;;13.11;100.00
7433;BME280;32233;49.500;7.764;2022-10-16T04:59:59;98334.44;;;13.02;100.00
7433;BME280;32233;49.500;7.764;2022-10-16T05:02:26;98334.81;;;13.05;100.00
7433;BME280;32233;49.500;7.764;2022-10-16T05:04:52;98338.16;;;13.19;100.00
7433;BME280;32233;49.500;7.764;2022-10-16T05:07:19;98343.53;;;13.12;100.00
7433;BME280;32233;49.500;7.764;2022-10-16T05:09:45;98349.59;;;13.20;100.00
7433;BME280;32233;49.500;7.764;2022-10-16T05:12:12;98352.81;;;13.22;100.00
7433;BME280;32233;49.500;7.764;2022-10-16T05:14:38;98359.28;;;13.32;100.00
7433;BME280;32233;49.500;7.764;2022-10-16T05:17:05;98364.44;;;13.27;100.00
7433;BME280;32233;49.500;7.764;2022-10-16T05:19:31;98360.31;;;13.50;100.00
7433;BME280;32233;49.500;7.764;2022-10-16T05:21:58;98344.25;;;13.45;100.00
7433;BME280;32233;49.500;7.764;2022-10-16T05:24:25;98351.19;;;13.27;100.00
7433;BME280;32233;49.500;7.764;2022-10-16T05:26:52;98348.56;;;13.21;100.00
7433;BME280;32233;49.500;7.764;2022-10-16T05:29:18;98342.72;;;13.12;100.00
7433;BME280;32233;49.500;7.764;2022-10-16T05:31:45;98347.56;;;13.40;100.00
7433;BME280;32233;49.500;7.764;2022-10-16T05:34:12;98361.59;;;13.22;100.00
7433;BME280;32233;49.500;7.764;2022-10-16T05:36:38;98368.56;;;13.42;100.00
7433;BME280;32233;49.500;7.764;2022-10-16T05:39:05;98365.03;;;13.29;100.00
7433;BME280;32233;49.500;7.764;2022-10-16T05:41:31;98380.91;;;13.36;100.00
7433;BME280;32233;49.500;7.764;2022-10-16T05:43:58;98361.81;;;13.27;100.00
7433;BME280;32233;49.500;7.764;2022-10-16T05:46:24;98354.56;;;13.53;100.00
7433;BME280;32233;49.500;7.764;2022-10-16T05:48:52;98360.91;;;13.33;100.00
7433;BME280;32233;49.500;7.764;2022-10-16T05:51:19;98372.72;;;13.56;100.00
7433;BME280;32233;49.500;7.764;2022-10-16T05:53:45;98374.91;;;13.59;100.00
7433;BME280;32233;49.500;7.764;2022-10-16T05:56:12;98371.38;;;13.47;100.00
7433;BME280;32233;49.500;7.764;2022-10-16T05:58:39;98379.47;;;13.33;100.00
7433;BME280;32233;49.500;7.764;2022-10-16T06:01:16;98388.34;;;13.27;100.00
7433;BME280;32233;49.500;7.764;2022-10-16T06:03:43;98384.66;;;13.28;100.00
7433;BME280;32233;49.500;7.764;2022-10-16T06:06:14;98382.59;;;13.49;100.00
7433;BME280;32233;49.500;7.764;2022-10-16T06:08:42;98384.22;;;13.50;100.00
7433;BME280;32233;49.500;7.764;2022-10-16T06:11:12;98382.75;;;13.35;100.00
7433;BME280;32233;49.500;7.764;2022-10-16T06:13:39;98387.53;;;13.27;100.00
7433;BME280;32233;49.500;7.764;2022-10-16T06:16:09;98397.03;;;13.34;100.00
7433;BME280;32233;49.500;7.764;2022-10-16T06:18:36;98402.00;;;13.31;100.00
7433;BME280;32233;49.500;7.764;2022-10-16T06:21:08;98398.19;;;13.20;100.00
7433;BME280;32233;49.500;7.764;2022-10-16T06:23:35;98402.19;;;13.29;100.00
7433;BME280;32233;49.500;7.764;2022-10-16T06:26:13;98396.59;;;13.37;100.00
7433;BME280;32233;49.500;7.764;2022-10-16T06:28:40;98386.13;;;13.24;100.00
7433;BME280;32233;49.500;7.764;2022-10-16T06:31:08;98391.28;;;13.37;100.00
7433;BME280;32233;49.500;7.764;2022-10-16T06:33:35;98392.56;;;13.35;100.00
7433;BME280;32233;49.500;7.764;2022-10-16T06:36:03;98390.72;;;13.35;100.00
7433;BME280;32233;49.500;7.764;2022-10-16T06:38:30;98396.53;;;13.44;100.00
7433;BME280;32233;49.500;7.764;2022-10-16T06:40:57;98400.38;;;13.48;100.00
7433;BME280;32233;49.500;7.764;2022-10-16T06:43:25;98414.50;;;13.42;100.00
7433;BME280;32233;49.500;7.764;2022-10-16T06:45:55;98410.69;;;13.56;100.00
7433;BME280;32233;49.500;7.764;2022-10-16T06:48:23;98415.50;;;13.48;100.00
7433;BME280;32233;49.500;7.764;2022-10-16T06:51:03;98407.59;;;13.78;100.00
7433;BME280;32233;49.500;7.764;2022-10-16T06:53:37;98406.50;;;13.49;100.00
7433;BME280;32233;49.500;7.764;2022-10-16T06:58:46;98421.38;;;13.50;100.00
7433;BME280;32233;49.500;7.764;2022-10-16T07:01:13;98431.25;;;13.79;100.00
7433;BME280;32233;49.500;7.764;2022-10-16T07:03:41;98424.53;;;13.95;100.00
7433;BME280;32233;49.500;7.764;2022-10-16T07:06:10;98429.22;;;13.81;100.00
7433;BME280;32233;49.500;7.764;2022-10-16T07:08:38;98436.53;;;13.68;100.00
7433;BME280;32233;49.500;7.764;2022-10-16T07:11:11;98435.84;;;13.91;100.00
7433;BME280;32233;49.500;7.764;2022-10-16T07:13:39;98434.59;;;13.93;100.00
7433;BME280;32233;49.500;7.764;2022-10-16T07:16:17;98443.50;;;13.99;100.00
7433;BME280;32233;49.500;7.764;2022-10-16T07:18:44;98437.47;;;13.92;100.00
7433;BME280;32233;49.500;7.764;2022-10-16T07:21:17;98449.50;;;13.94;100.00
7433;BME280;32233;49.500;7.764;2022-10-16T07:23:44;98446.13;;;13.69;100.00
7433;BME280;32233;49.500;7.764;2022-10-16T07:26:11;98458.28;;;13.76;100.00
7433;BME280;32233;49.500;7.764;2022-10-16T07:28:38;98473.88;;;13.73;100.00
7433;BME280;32233;49.500;7.764;2022-10-16T07:31:09;98459.69;;;13.97;100.00
7433;BME280;32233;49.500;7.764;2022-10-16T07:33:37;98465.38;;;13.82;100.00
7433;BME280;32233;49.500;7.764;2022-10-16T07:36:05;98476.81;;;13.83;100.00
7433;BME280;32233;49.500;7.764;2022-10-16T07:38:32;98488.53;;;13.75;100.00
7433;BME280;32233;49.500;7.764;2022-10-16T07:41:04;98494.59;;;13.64;100.00
7433;BME280;32233;49.500;7.764;2022-10-16T07:43:31;98502.56;;;13.82;100.00
7433;BME280;32233;49.500;7.764;2022-10-16T07:45:58;98506.53;;;13.73;100.00
7433;BME280;32233;49.500;7.764;2022-10-16T07:48:31;98519.22;;;13.71;100.00
7433;BME280;32233;49.500;7.764;2022-10-16T07:50:59;98544.88;;;13.59;100.00
7433;BME280;32233;49.500;7.764;2022-10-16T07:53:26;98542.34;;;13.89;100.00
7433;BME280;32233;49.500;7.764;2022-10-16T07:55:58;98524.22;;;14.04;100.00
7433;BME280;32233;49.500;7.764;2022-10-16T07:58:25;98545.22;;;13.87;100.00
7433;BME280;32233;49.500;7.764;2022-10-16T08:00:52;98536.56;;;13.74;100.00
7433;BME280;32233;49.500;7.764;2022-10-16T08:03:19;98531.66;;;13.77;100.00
7433;BME280;32233;49.500;7.764;2022-10-16T08:05:45;98530.59;;;13.78;100.00
7433;BME280;32233;49.500;7.764;2022-10-16T08:08:16;98532.59;;;13.83;100.00
7433;BME280;32233;49.500;7.764;2022-10-16T08:10:43;98536.34;;;13.75;100.00
7433;BME280;32233;49.500;7.764;2022-10-16T08:13:10;98541.97;;;13.85;100.00
7433;BME280;32233;49.500;7.764;2022-10-16T08:15:36;98542.94;;;13.91;100.00
7433;BME280;32233;49.500;7.764;2022-10-16T08:18:04;98545.69;;;14.21;100.00
7433;BME280;32233;49.500;7.764;2022-10-16T08:20:32;98548.41;;;14.15;100.00
7433;BME280;32233;49.500;7.764;2022-10-16T08:23:00;98546.72;;;14.20;100.00
7433;BME280;32233;49.500;7.764;2022-10-16T08:25:27;98555.16;;;14.17;100.00
7433;BME280;32233;49.500;7.764;2022-10-16T08:27:54;98553.13;;;14.31;100.00
7433;BME280;32233;49.500;7.764;2022-10-16T08:30:22;98556.41;;;14.51;100.00
7433;BME280;32233;49.500;7.764;2022-10-16T08:32:49;98559.00;;;14.58;100.00
7433;BME280;32233;49.500;7.764;2022-10-16T08:35:16;98561.34;;;14.66;100.00
7433;BME280;32233;49.500;7.764;2022-10-16T08:37:43;98570.69;;;14.69;100.00
7433;BME280;32233;49.500;7.764;2022-10-16T08:40:22;98567.88;;;14.82;100.00
7433;BME280;32233;49.500;7.764;2022-10-16T08:43:39;98567.25;;;14.98;100.00
7433;BME280;32233;49.500;7.764;2022-10-16T08:46:26;98582.06;;;15.06;100.00
7433;BME280;32233;49.500;7.764;2022-10-16T08:48:59;98573.16;;;15.00;100.00
7433;BME280;32233;49.500;7.764;2022-10-16T08:51:29;98579.69;;;15.16;100.00
7433;BME280;32233;49.500;7.764;2022-10-16T08:53:58;98575.22;;;15.40;100.00
7433;BME280;32233;49.500;7.764;2022-10-16T08:56:27;98573.66;;;15.74;100.00
7433;BME280;32233;49.500;7.764;2022-10-16T08:58:55;98566.25;;;15.88;100.00
7433;BME280;32233;49.500;7.764;2022-10-16T09:01:41;98570.19;;;15.85;100.00
7433;BME280;32233;49.500;7.764;2022-10-16T09:12:40;98587.00;;;16.62;100.00
7433;BME280;32233;49.500;7.764;2022-10-16T09:15:29;98579.44;;;17.27;100.00
7433;BME280;32233;49.500;7.764;2022-10-16T09:23:30;98593.63;;;17.62;99.47
7433;BME280;32233;49.500;7.764;2022-10-16T09:25:58;98585.13;;;17.65;100.00
7433;BME280;32233;49.500;7.764;2022-10-16T09:28:25;98586.97;;;17.98;95.24
7433;BME280;32233;49.500;7.764;2022-10-16T09:30:51;98598.75;;;17.80;99.81
7433;BME280;32233;49.500;7.764;2022-10-16T09:33:24;98598.50;;;17.81;94.65
7433;BME280;32233;49.500;7.764;2022-10-16T09:35:54;98596.88;;;17.80;99.22
7433;BME280;32233;49.500;7.764;2022-10-16T09:38:41;98596.22;;;17.73;98.38
7433;BME280;32233;49.500;7.764;2022-10-16T09:43:47;98596.09;;;17.80;97.30
7433;BME280;32233;49.500;7.764;2022-10-16T09:48:57;98604.63;;;17.65;100.00
7433;BME280;32233;49.500;7.764;2022-10-16T09:51:28;98610.44;;;17.45;98.99
7433;BME280;32233;49.500;7.764;2022-10-16T09:53:58;98614.31;;;17.38;100.00
7433;BME280;32233;49.500;7.764;2022-10-16T09:56:27;98616.50;;;17.24;100.00
7433;BME280;32233;49.500;7.764;2022-10-16T09:58:57;98609.09;;;17.14;100.00
7433;BME280;32233;49.500;7.764;2022-10-16T10:01:29;98610.06;;;17.08;100.00
7433;BME280;32233;49.500;7.764;2022-10-16T10:03:57;98619.59;;;17.04;100.00
7433;BME280;32233;49.500;7.764;2022-10-16T10:06:44;98609.47;;;17.06;100.00
7433;BME280;32233;49.500;7.764;2022-10-16T10:09:35;98616.09;;;17.15;100.00
7433;BME280;32233;49.500;7.764;2022-10-16T10:12:05;98612.06;;;17.29;100.00
7433;BME280;32233;49.500;7.764;2022-10-16T10:14:38;98608.44;;;18.03;100.00
7433;BME280;32233;49.500;7.764;2022-10-16T10:22:26;98620.03;;;17.75;100.00
7433;BME280;32233;49.500;7.764;2022-10-16T10:30:16;98619.63;;;17.83;100.00
7433;BME280;32233;49.500;7.764;2022-10-16T10:33:16;98621.81;;;17.86;100.00
7433;BME280;32233;49.500;7.764;2022-10-16T10:38:30;98620.28;;;17.73;100.00
7433;BME280;32233;49.500;7.764;2022-10-16T10:44:16;98622.41;;;17.26;100.00
7433;BME280;32233;49.500;7.764;2022-10-16T10:46:50;98640.47;;;17.19;100.00
7433;BME280;32233;49.500;7.764;2022-10-16T10:54:40;98628.50;;;17.09;100.00
7433;BME280;32233;49.500;7.764;2022-10-16T10:57:21;98633.69;;;16.99;100.00
7433;BME280;32233;49.500;7.764;2022-10-16T11:00:03;98640.53;;;16.95;100.00
7433;BME280;32233;49.500;7.764;2022-10-16T11:05:40;98624.84;;;17.27;100.00
7433;BME280;32233;49.500;7.764;2022-10-16T11:08:09;98633.44;;;17.63;100.00
7433;BME280;32233;49.500;7.764;2022-10-16T11:10:45;98641.13;;;17.88;100.00
7433;BME280;32233;49.500;7.764;2022-10-16T11:13:19;98640.94;;;18.12;100.00
7433;BME280;32233;49.500;7.764;2022-10-16T11:15:50;98638.75;;;18.09;100.00
7433;BME280;32233;49.500;7.764;2022-10-16T11:18:59;98634.63;;;18.01;100.00
7433;BME280;32233;49.500;7.764;2022-10-16T11:21:30;98633.50;;;17.97;100.00
7433;BME280;32233;49.500;7.764;2022-10-16T11:24:06;98630.38;;;18.22;100.00
7433;BME280;32233;49.500;7.764;2022-10-16T11:26:41;98623.03;;;18.73;99.95
7433;BME280;32233;49.500;7.764;2022-10-16T11:29:23;98627.66;;;18.61;100.00
7433;BME280;32233;49.500;7.764;2022-10-16T11:32:01;98621.56;;;18.65;98.43
7433;BME280;32233;49.500;7.764;2022-10-16T11:34:53;98615.63;;;18.80;96.05
7433;BME280;32233;49.500;7.764;2022-10-16T11:37:27;98615.25;;;19.20;95.29
7433;BME280;32233;49.500;7.764;2022-10-16T11:40:04;98621.38;;;19.75;90.49
7433;BME280;32233;49.500;7.764;2022-10-16T11:42:48;98618.28;;;20.31;87.59
7433;BME280;32233;49.500;7.764;2022-10-16T11:45:33;98614.34;;;20.01;86.46
7433;BME280;32233;49.500;7.764;2022-10-16T11:48:12;98605.97;;;21.08;82.27
7433;BME280;32233;49.500;7.764;2022-10-16T11:50:54;98608.84;;;20.86;81.39
7433;BME280;32233;49.500;7.764;2022-10-16T11:53:39;98603.97;;;20.20;83.53
7433;BME280;32233;49.500;7.764;2022-10-16T11:56:16;98605.06;;;20.24;82.56
7433;BME280;32233;49.500;7.764;2022-10-16T11:58:54;98605.06;;;20.19;83.50
7433;BME280;32233;49.500;7.764;2022-10-16T12:01:40;98604.81;;;19.83;84.76
7433;BME280;32233;49.500;7.764;2022-10-16T12:04:39;98615.31;;;19.58;88.35
7433;BME280;32233;49.500;7.764;2022-10-16T12:07:19;98610.94;;;19.46;89.28
7433;BME280;32233;49.500;7.764;2022-10-16T12:09:48;98604.19;;;19.71;88.08
7433;BME280;32233;49.500;7.764;2022-10-16T12:17:47;98587.47;;;21.98;74.59
7433;BME280;32233;49.500;7.764;2022-10-16T12:22:54;98595.28;;;21.38;76.94
7433;BME280;32233;49.500;7.764;2022-10-16T12:25:29;98588.53;;;20.42;80.62
7433;BME280;32233;49.500;7.764;2022-10-16T12:28:06;98580.25;;;19.96;85.12
7433;BME280;32233;49.500;7.764;2022-10-16T12:30:53;98582.72;;;19.66;87.93
7433;BME280;32233;49.500;7.764;2022-10-16T12:35:56;98589.09;;;19.05;89.21
7433;BME280;32233;49.500;7.764;2022-10-16T12:38:33;98586.69;;;19.04;91.45
7433;BME280;32233;49.500;7.764;2022-10-16T12:41:05;98591.28;;;19.09;88.32
7433;BME280;32233;49.500;7.764;2022-10-16T12:51:41;98595.50;;;18.77;93.06
7433;BME280;32233;49.500;7.764;2022-10-16T12:54:23;98603.09;;;18.64;93.46
7433;BME280;32233;49.500;7.764;2022-10-16T13:05:03;98586.94;;;18.75;94.39
7433;BME280;32233;49.500;7.764;2022-10-16T13:10:28;98590.91;;;18.73;93.83
7433;BME280;32233;49.500;7.764;2022-10-16T13:16:04;98581.38;;;18.82;94.84
7433;BME280;32233;49.500;7.764;2022-10-16T13:19:06;98586.56;;;18.94;93.61
7433;BME280;32233;49.500;7.764;2022-10-16T13:22:03;98589.88;;;19.01;95.89
7433;BME280;32233;49.500;7.764;2022-10-16T13:24:46;98592.59;;;19.06;93.84
7433;BME280;32233;49.500;7.764;2022-10-16T13:32:38;98597.72;;;19.08;93.44
7433;BME280;32233;49.500;7.764;2022-10-16T13:35:28;98598.63;;;18.91;90.74
7433;BME280;32233;49.500;7.764;2022-10-16T13:38:05;98594.56;;;18.89;91.03
7433;BME280;32233;49.500;7.764;2022-10-16T13:40:32;98595.00;;;18.80;94.48
7433;BME280;32233;49.500;7.764;2022-10-16T13:43:01;98593.63;;;18.56;100.00
7433;BME280;32233;49.500;7.764;2022-10-16T13:45:28;98593.06;;;18.54;100.00
7433;BME280;32233;49.500;7.764;2022-10-16T13:48:02;98597.38;;;18.55;100.00
7433;BME280;32233;49.500;7.764;2022-10-16T13:50:29;98598.44;;;18.76;99.14
7433;BME280;32233;49.500;7.764;2022-10-16T13:53:05;98607.91;;;18.62;95.90
7433;BME280;32233;49.500;7.764;2022-10-16T13:55:33;98598.16;;;18.55;97.64
7433;BME280;32233;49.500;7.764;2022-10-16T13:58:13;98598.91;;;18.51;100.00
7433;BME280;32233;49.500;7.764;2022-10-16T14:00:42;98605.03;;;18.46;100.00
7433;BME280;32233;49.500;7.764;2022-10-16T14:03:19;98604.97;;;18.63;100.00
7433;BME280;32233;49.500;7.764;2022-10-16T14:05:55;98598.44;;;18.76;100.00
7433;BME280;32233;49.500;7.764;2022-10-16T14:08:23;98603.78;;;18.76;99.35
7433;BME280;32233;49.500;7.764;2022-10-16T14:10:53;98603.41;;;18.89;98.19
7433;BME280;32233;49.500;7.764;2022-10-16T14:13:28;98607.72;;;18.90;95.88
7433;BME280;32233;49.500;7.764;2022-10-16T14:15:55;98613.69;;;18.75;96.67
7433;BME280;32233;49.500;7.764;2022-10-16T14:18:26;98615.19;;;18.88;97.67
7433;BME280;32233;49.500;7.764;2022-10-16T14:21:12;98624.28;;;18.87;100.00
7433;BME280;32233;49.500;7.764;2022-10-16T14:23:41;98617.00;;;19.10;99.74
7433;BME280;32233;49.500;7.764;2022-10-16T14:28:36;98604.91;;;18.80;97.22
7433;BME280;32233;49.500;7.764;2022-10-16T14:33:43;98604.28;;;18.95;96.79
7433;BME280;32233;49.500;7.764;2022-10-16T14:38:42;98607.19;;;18.93;99.58
7433;BME280;32233;49.500;7.764;2022-10-16T14:41:09;98607.00;;;19.00;96.47
7433;BME280;32233;49.500;7.764;2022-10-16T14:43:39;98610.63;;;18.89;93.87
7433;BME280;32233;49.500;7.764;2022-10-16T14:46:15;98611.13;;;18.86;94.63
7433;BME280;32233;49.500;7.764;2022-10-16T14:48:44;98613.25;;;18.84;93.27
7433;BME280;32233;49.500;7.764;2022-10-16T14:51:17;98616.63;;;18.74;91.21
7433;BME280;32233;49.500;7.764;2022-10-16T14:53:44;98619.00;;;18.70;95.19
7433;BME280;32233;49.500;7.764;2022-10-16T14:56:19;98621.78;;;18.59;95.16
7433;BME280;32233;49.500;7.764;2022-10-16T14:58:47;98614.66;;;18.69;97.89
7433;BME280;32233;49.500;7.764;2022-10-16T15:01:13;98619.72;;;18.66;99.92
7433;BME280;32233;49.500;7.764;2022-10-16T15:03:40;98624.25;;;18.43;100.00
7433;BME280;32233;49.500;7.764;2022-10-16T15:06:11;98622.16;;;18.28;97.96
7433;BME280;32233;49.500;7.764;2022-10-16T15:08:38;98622.88;;;18.41;100.00